Date,TemperatureHighF,TemperatureAvgF,TemperatureLowF,DewpointHighF,DewpointAvgF,DewpointLowF,HumidityHigh,HumidityAvg,HumidityLow,PressureMaxIn,PressureMinIn,WindSpeedMaxMPH,WindSpeedAvgMPH,GustSpeedMaxMPH,PrecipitationSumIn
2013-9-1,80,74,71,76,72,68,97,92,81,29.86,29.77,5,1,12,0.28
2013-9-2,84,76,72,76,73,70,97,90,72,29.85,29.69,6,1,18,0.02
2013-9-3,83,75,67,73,69,60,97,82,63,29.79,29.67,6,2,15,0.01
2013-9-4,82,71,61,61,58,56,89,66,42,29.90,29.78,5,2,14,0.01
2013-9-5,72,65,56,63,57,42,92,77,35,30.13,29.84,4,1,10,0.00
2013-9-6,70,60,49,48,44,40,83,58,36,30.23,30.08,4,1,10,0.00
2013-9-7,81,66,52,58,51,46,83,61,36,30.08,29.83,6,2,13,0.01
2013-9-8,77,67,55,63,53,41,88,64,36,30.08,29.72,6,2,19,0.00
2013-9-9,71,60,48,52,46,41,81,61,39,30.22,30.08,6,2,15,0.00
2013-9-10,76,68,58,71,63,52,94,84,75,30.15,30.01,8,2,17,0.06
2013-9-11,97,82,70,78,72,67,98,76,45,30.05,29.91,6,2,16,0.00
2013-9-12,89,79,68,75,71,67,96,79,58,29.94,29.65,9,3,21,0.11
2013-9-13,80,70,61,69,66,56,98,86,61,29.73,29.54,4,1,11,0.28
2013-9-14,68,62,56,56,54,52,88,75,63,30.04,29.73,3,1,12,0.01
2013-9-15,73,62,51,54,51,47,93,70,43,30.15,30.03,5,1,12,0.00
2013-9-16,70,60,51,56,51,41,85,74,57,30.24,30.00,5,2,19,0.01
2013-9-17,65,54,43,46,41,37,82,62,42,30.41,30.24,5,2,14,0.01
2013-9-18,75,59,45,51,46,42,92,65,32,30.31,30.12,5,1,11,0.01
2013-9-19,80,65,50,56,53,48,91,68,37,30.12,30.01,3,1,7,0.01
2013-9-20,80,66,53,60,56,52,94,74,45,30.07,29.98,3,1,9,0.01
2013-9-21,77,67,57,67,61,55,97,82,58,30.01,29.71,9,3,22,0.00
2013-9-22,72,66,55,68,58,47,96,77,50,29.81,29.59,8,2,23,0.01
2013-9-23,65,55,48,47,44,41,81,66,50,29.99,29.81,5,2,15,0.01
2013-9-24,68,56,45,47,44,40,86,66,43,29.98,29.80,5,2,15,0.00
2013-9-25,67,57,48,51,48,44,89,73,55,29.97,29.87,4,1,11,0.00
2013-9-26,67,60,55,53,50,47,84,71,53,30.11,29.97,5,1,11,0.00
2013-9-27,67,60,54,55,52,50,88,75,58,30.25,30.11,4,1,10,0.00
2013-9-28,74,60,51,58,54,49,95,80,52,30.31,30.24,4,1,10,0.00
2013-9-29,68,56,49,57,51,46,99,85,46,30.25,30.11,3,1,10,0.00
2013-9-30,69,57,50,55,52,49,99,84,52,30.12,29.96,3,0,8,0.00